Time;durP1;ratioP1;P1;durP2;ratioP2;P2;SDS_P1;SDS_P2;PMS_P1;PMS_P2;Temp;Humidity;BMP_temperature;BMP_pressure;BME280_temperature;BME280_humidity;BME280_pressure;Samples;Min_cycle;Max_cycle;Signal;HPM_P1;HPM_P2
2022/07/31 00:04:27;;;;;;;6.55;6.07;;;;;;;;;;10506854;28;20309;-79
2022/07/31 00:09:28;;;;;;;7.13;6.72;;;;;;;;;;10511095;28;20174;-79
2022/07/31 00:14:29;;;;;;;6.57;6.22;;;;;;;;;;10506047;28;20209;-79
2022/07/31 00:19:30;;;;;;;7.43;7.03;;;;;;;;;;10536324;28;20612;-79
2022/07/31 00:24:31;;;;;;;8.63;7.88;;;;;;;;;;10530398;28;20349;-79
2022/07/31 00:29:33;;;;;;;8.68;8.02;;;;;;;;;;10533796;28;20185;-81
2022/07/31 00:34:34;;;;;;;8.07;7.30;;;;;;;;;;10519280;28;20938;-80
2022/07/31 00:39:37;;;;;;;7.90;7.30;;;;;;;;;;10516294;28;20273;-80
2022/07/31 00:44:38;;;;;;;7.65;7.15;;;;;;;;;;10528912;28;20218;-81
2022/07/31 00:49:39;;;;;;;7.70;7.20;;;;;;;;;;10545740;28;20540;-80
2022/07/31 00:54:40;;;;;;;7.88;7.47;;;;;;;;;;10531604;28;20223;-81
2022/07/31 00:59:42;;;;;;;8.75;8.25;;;;;;;;;;10513154;28;20174;-81
2022/07/31 01:04:43;;;;;;;7.97;7.57;;;;;;;;;;10523740;28;20703;-81
2022/07/31 01:09:46;;;;;;;8.57;8.07;;;;;;;;;;10524974;28;20602;-82
2022/07/31 01:14:49;;;;;;;11.15;8.02;;;;;;;;;;10529007;28;20296;-81
2022/07/31 01:19:51;;;;;;;9.65;8.80;;;;;;;;;;10493448;28;20206;-81
2022/07/31 01:25:12;;;;;;;11.35;10.45;;;;;;;;;;10533261;28;20217;-79
2022/07/31 01:30:18;;;;;;;10.45;9.55;;;;;;;;;;10509515;28;20173;-81
2022/07/31 01:35:21;;;;;;;11.15;10.13;;;;;;;;;;10540060;28;20229;-81
2022/07/31 01:40:27;;;;;;;11.63;10.27;;;;;;;;;;10511252;28;20264;-81
2022/07/31 01:45:30;;;;;;;9.57;9.02;;;;;;;;;;10504999;28;20217;-81
2022/07/31 01:50:32;;;;;;;10.13;9.20;;;;;;;;;;10501850;28;20602;-81
2022/07/31 01:55:34;;;;;;;11.52;10.50;;;;;;;;;;10505246;28;20178;-80
2022/07/31 02:00:36;;;;;;;11.40;10.57;;;;;;;;;;10497760;28;20315;-80
2022/07/31 02:05:37;;;;;;;10.82;9.88;;;;;;;;;;10528160;28;20212;-81
2022/07/31 02:10:39;;;;;;;11.85;10.57;;;;;;;;;;10522249;28;20300;-81
2022/07/31 02:15:44;;;;;;;12.55;11.65;;;;;;;;;;10512321;28;20183;-81
2022/07/31 02:20:46;;;;;;;13.40;12.35;;;;;;;;;;10502284;28;20225;-81
2022/07/31 02:25:47;;;;;;;13.65;12.60;;;;;;;;;;10523817;28;20269;-80
2022/07/31 02:30:49;;;;;;;13.40;12.43;;;;;;;;;;10506861;28;20632;-81
2022/07/31 02:35:50;;;;;;;14.15;13.05;;;;;;;;;;10484584;28;20227;-80
2022/07/31 02:40:53;;;;;;;13.23;12.32;;;;;;;;;;10450215;28;20218;-81
2022/07/31 02:45:55;;;;;;;13.95;12.82;;;;;;;;;;10495651;28;20259;-81
2022/07/31 02:50:56;;;;;;;13.88;12.60;;;;;;;;;;10498355;28;20209;-80
2022/07/31 02:55:58;;;;;;;13.73;12.65;;;;;;;;;;10471241;28;20269;-81
2022/07/31 03:01:00;;;;;;;12.70;11.63;;;;;;;;;;10473866;28;20222;-81
2022/07/31 03:06:01;;;;;;;12.32;11.38;;;;;;;;;;10469725;28;20202;-81
2022/07/31 03:11:02;;;;;;;12.13;11.43;;;;;;;;;;10468825;28;20213;-80
2022/07/31 03:16:06;;;;;;;11.32;10.52;;;;;;;;;;10480182;28;20194;-80
2022/07/31 03:21:09;;;;;;;13.10;11.80;;;;;;;;;;10501749;28;20210;-80
2022/07/31 03:26:12;;;;;;;11.95;11.05;;;;;;;;;;10494238;28;20679;-81
2022/07/31 03:31:13;;;;;;;11.80;10.90;;;;;;;;;;10478918;28;20202;-80
2022/07/31 03:36:14;;;;;;;12.07;11.18;;;;;;;;;;10510670;28;20186;-80
2022/07/31 03:41:16;;;;;;;14.18;13.05;;;;;;;;;;10521763;28;20267;-80
2022/07/31 03:46:19;;;;;;;12.35;11.32;;;;;;;;;;10520074;28;20200;-80
2022/07/31 03:51:20;;;;;;;11.80;10.85;;;;;;;;;;10505811;28;20241;-80
2022/07/31 03:56:21;;;;;;;13.05;11.88;;;;;;;;;;10540876;28;20663;-80
2022/07/31 04:01:22;;;;;;;12.77;11.75;;;;;;;;;;10527875;28;20296;-81
2022/07/31 04:06:26;;;;;;;12.80;11.65;;;;;;;;;;10515325;28;20728;-79
2022/07/31 04:11:28;;;;;;;13.80;12.70;;;;;;;;;;10510305;28;20202;-79
2022/07/31 04:16:30;;;;;;;12.27;11.25;;;;;;;;;;10537244;28;20204;-80
2022/07/31 04:21:31;;;;;;;13.25;12.32;;;;;;;;;;10505580;28;20220;-77
2022/07/31 04:26:32;;;;;;;13.68;12.57;;;;;;;;;;10507915;28;20210;-80
2022/07/31 04:31:35;;;;;;;13.45;12.25;;;;;;;;;;10508202;28;20701;-79
2022/07/31 04:36:38;;;;;;;13.10;12.10;;;;;;;;;;10510070;28;20170;-80
2022/07/31 04:41:39;;;;;;;13.05;12.05;;;;;;;;;;10538898;28;20296;-80
2022/07/31 04:46:42;;;;;;;14.30;13.30;;;;;;;;;;10516812;28;20209;-80
2022/07/31 04:51:43;;;;;;;14.80;13.70;;;;;;;;;;10510956;28;20212;-79
2022/07/31 04:56:46;;;;;;;13.57;12.50;;;;;;;;;;10517692;28;20185;-79
2022/07/31 05:01:48;;;;;;;15.60;14.40;;;;;;;;;;10528932;28;20213;-79
2022/07/31 05:06:52;;;;;;;15.20;13.93;;;;;;;;;;10514357;28;20240;-79
2022/07/31 05:11:53;;;;;;;14.95;13.80;;;;;;;;;;10512833;28;20232;-78
2022/07/31 05:16:56;;;;;;;13.40;12.45;;;;;;;;;;10510284;28;20177;-78
2022/07/31 05:21:58;;;;;;;13.63;12.45;;;;;;;;;;10508976;28;20208;-76
2022/07/31 05:27:08;;;;;;;12.00;11.10;;;;;;;;;;10493852;28;20204;-79
2022/07/31 05:32:09;;;;;;;12.20;10.77;;;;;;;;;;10509176;28;20298;-79
2022/07/31 05:37:11;;;;;;;10.75;9.65;;;;;;;;;;10514514;28;20260;-79
2022/07/31 05:42:14;;;;;;;8.95;8.32;;;;;;;;;;10522245;28;20672;-79
2022/07/31 05:47:37;;;;;;;7.38;6.68;;;;;;;;;;10526296;28;20835;-75
2022/07/31 05:52:38;;;;;;;5.97;5.40;;;;;;;;;;10513584;28;20216;-76
2022/07/31 05:58:06;;;;;;;6.45;5.75;;;;;;;;;;10502408;28;20177;-75
2022/07/31 06:03:07;;;;;;;5.32;5.13;;;;;;;;;;10504170;28;20359;-79
2022/07/31 06:08:27;;;;;;;5.03;4.80;;;;;;;;;;10504551;28;20220;-79
2022/07/31 06:13:29;;;;;;;5.97;5.25;;;;;;;;;;10512679;28;20680;-78
2022/07/31 06:18:35;;;;;;;6.18;5.63;;;;;;;;;;10509290;28;20677;-76
2022/07/31 06:23:36;;;;;;;10.55;4.93;;;;;;;;;;10529078;28;20633;-77
2022/07/31 06:28:55;;;;;;;4.28;4.10;;;;;;;;;;10509344;28;20264;-77
2022/07/31 06:33:56;;;;;;;4.53;4.22;;;;;;;;;;10485087;28;20222;-76
2022/07/31 06:39:02;;;;;;;4.05;3.85;;;;;;;;;;10464398;28;20200;-77
2022/07/31 06:44:03;;;;;;;5.22;4.65;;;;;;;;;;10485458;28;20232;-78
2022/07/31 06:49:30;;;;;;;6.05;4.35;;;;;;;;;;10470468;28;20202;-78
2022/07/31 06:54:31;;;;;;;4.85;4.50;;;;;;;;;;10471582;28;20293;-77
2022/07/31 06:59:32;;;;;;;4.00;3.80;;;;;;;;;;10484404;28;20186;-79
2022/07/31 07:04:33;;;;;;;3.30;3.10;;;;;;;;;;10473330;28;20395;-77
2022/07/31 07:09:35;;;;;;;3.95;3.53;;;;;;;;;;10479752;28;20182;-77
2022/07/31 07:14:36;;;;;;;6.03;3.10;;;;;;;;;;10462195;28;20744;-78
2022/07/31 07:19:41;;;;;;;2.45;2.38;;;;;;;;;;10465970;28;20711;-76
2022/07/31 07:24:43;;;;;;;2.70;2.60;;;;;;;;;;10464986;28;20276;-76
2022/07/31 07:29:51;;;;;;;2.17;2.10;;;;;;;;;;10456976;28;20270;-78
2022/07/31 07:34:52;;;;;;;2.65;1.88;;;;;;;;;;10492871;28;20717;-78
2022/07/31 07:40:13;;;;;;;3.05;2.17;;;;;;;;;;10522198;28;20189;-78
2022/07/31 07:45:15;;;;;;;2.17;2.08;;;;;;;;;;10511272;28;20301;-74
2022/07/31 07:50:16;;;;;;;7.15;2.00;;;;;;;;;;10517907;28;20193;-76
2022/07/31 07:55:40;;;;;;;3.45;1.60;;;;;;;;;;10504352;28;20738;-77
2022/07/31 08:01:00;;;;;;;3.40;1.88;;;;;;;;;;10530067;28;20213;-78
2022/07/31 08:06:02;;;;;;;2.00;1.30;;;;;;;;;;10506012;28;20259;-77
2022/07/31 08:11:03;;;;;;;2.95;1.27;;;;;;;;;;10505561;28;20202;-77
2022/07/31 08:16:29;;;;;;;1.73;1.52;;;;;;;;;;10509049;28;20176;-79
2022/07/31 08:21:34;;;;;;;2.75;1.70;;;;;;;;;;10505392;28;20335;-77
2022/07/31 08:31:54;;;;;;;3.65;1.45;;;;;;;;;;10507456;28;20213;-76
2022/07/31 08:37:18;;;;;;;3.17;1.10;;;;;;;;;;10529998;28;21060;-77
2022/07/31 08:42:19;;;;;;;1.25;1.15;;;;;;;;;;10511185;28;20241;-76
2022/07/31 08:47:21;;;;;;;1.17;0.93;;;;;;;;;;10496104;28;20662;-77
2022/07/31 08:52:25;;;;;;;2.45;1.33;;;;;;;;;;10506722;28;20212;-75
2022/07/31 08:57:37;;;;;;;1.83;1.73;;;;;;;;;;10499023;28;20206;-77
2022/07/31 09:02:39;;;;;;;1.38;1.13;;;;;;;;;;10518097;28;20212;-76
2022/07/31 09:07:59;;;;;;;2.45;1.25;;;;;;;;;;10506897;28;20205;-78
2022/07/31 09:13:11;;;;;;;0.73;0.70;;;;;;;;;;10504448;28;20197;-77
2022/07/31 09:18:20;;;;;;;1.30;0.75;;;;;;;;;;10531977;28;20232;-76
2022/07/31 09:23:24;;;;;;;0.80;0.57;;;;;;;;;;10509588;28;20209;-77
2022/07/31 09:28:32;;;;;;;1.90;0.63;;;;;;;;;;10497335;28;20218;-75
2022/07/31 09:33:37;;;;;;;4.25;0.65;;;;;;;;;;10504063;28;20225;-72
2022/07/31 09:38:55;;;;;;;0.65;0.65;;;;;;;;;;10529976;28;20268;-75
2022/07/31 09:44:05;;;;;;;1.75;0.70;;;;;;;;;;10499529;28;20664;-72
2022/07/31 09:49:09;;;;;;;3.30;0.70;;;;;;;;;;10502215;28;20197;-73
2022/07/31 09:54:21;;;;;;;0.52;0.52;;;;;;;;;;10507083;28;20667;-75
2022/07/31 09:59:34;;;;;;;0.52;0.40;;;;;;;;;;10529632;28;20306;-74
2022/07/31 10:04:38;;;;;;;1.45;0.50;;;;;;;;;;10478807;28;20248;-75
2022/07/31 10:09:41;;;;;;;5.75;0.60;;;;;;;;;;10500678;28;20173;-73
2022/07/31 10:15:12;;;;;;;5.30;0.63;;;;;;;;;;10486241;28;20212;-75
2022/07/31 10:20:20;;;;;;;0.40;0.40;;;;;;;;;;10501333;28;20250;-74
2022/07/31 10:25:44;;;;;;;1.30;0.40;;;;;;;;;;10507271;28;20212;-74
2022/07/31 10:30:46;;;;;;;1.65;0.40;;;;;;;;;;10532156;28;22802;-75
2022/07/31 10:35:59;;;;;;;0.20;0.20;;;;;;;;;;10518941;28;20270;-75
2022/07/31 10:41:35;;;;;;;1.48;0.40;;;;;;;;;;10540887;28;20213;-75
2022/07/31 10:46:37;;;;;;;2.30;0.40;;;;;;;;;;10504497;28;20273;-73
2022/07/31 10:51:58;;;;;;;0.30;0.30;;;;;;;;;;10514802;28;20245;-72
2022/07/31 10:57:22;;;;;;;0.30;0.30;;;;;;;;;;10515038;28;20728;-74
2022/07/31 11:02:43;;;;;;;0.40;0.40;;;;;;;;;;10532052;28;20220;-72
2022/07/31 11:08:02;;;;;;;0.20;0.20;;;;;;;;;;10519462;28;20212;-75
2022/07/31 11:13:24;;;;;;;0.30;0.30;;;;;;;;;;10514708;28;20629;-74
2022/07/31 11:18:36;;;;;;;1.02;0.20;;;;;;;;;;10516380;28;20201;-73
2022/07/31 11:23:37;;;;;;;0.30;0.30;;;;;;;;;;10530328;28;20213;-74
2022/07/31 11:28:38;;;;;;;0.63;0.40;;;;;;;;;;10502540;28;20230;-74
2022/07/31 11:33:42;;;;;;;0.50;0.30;;;;;;;;;;10532088;28;20233;-75
2022/07/31 11:38:44;;;;;;;0.35;0.30;;;;;;;;;;10537359;28;20269;-70
2022/07/31 11:43:46;;;;;;;0.30;0.30;;;;;;;;;;10531987;28;20580;-75
2022/07/31 11:48:47;;;;;;;1.55;0.40;;;;;;;;;;10530677;28;20205;-74
2022/07/31 11:53:49;;;;;;;0.35;0.35;;;;;;;;;;10510047;28;20632;-74
2022/07/31 11:58:52;;;;;;;0.45;0.45;;;;;;;;;;10532705;28;20181;-75
2022/07/31 12:03:53;;;;;;;0.75;0.40;;;;;;;;;;10530922;28;20280;-75
2022/07/31 12:08:55;;;;;;;0.45;0.40;;;;;;;;;;10503142;28;20214;-75
2022/07/31 12:13:58;;;;;;;0.50;0.50;;;;;;;;;;10529857;28;20757;-74
2022/07/31 12:18:59;;;;;;;1.00;0.40;;;;;;;;;;10516680;28;20202;-74
2022/07/31 12:24:00;;;;;;;1.17;0.40;;;;;;;;;;10536765;28;20638;-76
2022/07/31 12:29:02;;;;;;;0.55;0.55;;;;;;;;;;10536921;28;20186;-75
2022/07/31 12:34:03;;;;;;;0.75;0.75;;;;;;;;;;10514017;28;20256;-72
2022/07/31 12:39:04;;;;;;;0.60;0.60;;;;;;;;;;10530982;28;20190;-75
2022/07/31 12:44:10;;;;;;;0.65;0.57;;;;;;;;;;10525774;28;20213;-74
2022/07/31 12:49:12;;;;;;;1.30;0.70;;;;;;;;;;10508441;28;20212;-72
2022/07/31 12:54:17;;;;;;;1.00;0.63;;;;;;;;;;10501613;28;20216;-72
2022/07/31 12:59:18;;;;;;;1.58;0.50;;;;;;;;;;10502326;28;20675;-73
2022/07/31 13:04:19;;;;;;;3.03;0.50;;;;;;;;;;10530778;28;20307;-73
2022/07/31 13:09:20;;;;;;;0.50;0.50;;;;;;;;;;10486384;28;20216;-73
2022/07/31 13:14:22;;;;;;;0.88;0.70;;;;;;;;;;10529674;28;20212;-74
2022/07/31 13:19:23;;;;;;;0.50;0.50;;;;;;;;;;10491282;28;20213;-74
2022/07/31 13:24:25;;;;;;;1.05;0.50;;;;;;;;;;10530242;28;20738;-73
2022/07/31 13:29:26;;;;;;;0.65;0.65;;;;;;;;;;10500518;28;20664;-76
2022/07/31 13:34:27;;;;;;;0.50;0.50;;;;;;;;;;10522748;28;20222;-74
2022/07/31 13:39:28;;;;;;;0.80;0.50;;;;;;;;;;10530242;28;20190;-75
2022/07/31 13:44:29;;;;;;;0.88;0.60;;;;;;;;;;10537368;28;20228;-75
2022/07/31 13:49:33;;;;;;;0.40;0.40;;;;;;;;;;10514933;28;20220;-75
2022/07/31 13:54:34;;;;;;;1.48;0.50;;;;;;;;;;10530277;28;20220;-76
2022/07/31 13:59:35;;;;;;;0.50;0.50;;;;;;;;;;10501251;28;20186;-75
2022/07/31 14:04:36;;;;;;;1.35;0.70;;;;;;;;;;10492539;28;20217;-74
2022/07/31 14:09:37;;;;;;;0.40;0.40;;;;;;;;;;10524794;28;20182;-74
2022/07/31 14:14:38;;;;;;;1.08;0.40;;;;;;;;;;10520187;28;20221;-74
2022/07/31 14:19:40;;;;;;;0.90;0.40;;;;;;;;;;10525356;28;20201;-74
2022/07/31 14:24:41;;;;;;;0.90;0.30;;;;;;;;;;10501368;28;20251;-74
2022/07/31 14:29:42;;;;;;;1.05;0.30;;;;;;;;;;10499322;28;20589;-73
2022/07/31 14:34:43;;;;;;;1.00;0.30;;;;;;;;;;10522362;28;20704;-73
2022/07/31 14:39:44;;;;;;;0.30;0.30;;;;;;;;;;10497518;28;20177;-73
2022/07/31 14:44:46;;;;;;;0.50;0.50;;;;;;;;;;10526229;28;20205;-74
2022/07/31 14:49:47;;;;;;;0.40;0.40;;;;;;;;;;10527170;28;20984;-73
2022/07/31 14:54:48;;;;;;;0.40;0.40;;;;;;;;;;10529115;28;20371;-76
2022/07/31 14:59:49;;;;;;;0.40;0.40;;;;;;;;;;10530679;28;20648;-76
2022/07/31 15:04:51;;;;;;;0.57;0.57;;;;;;;;;;10524809;28;20261;-75
2022/07/31 15:09:52;;;;;;;0.43;0.43;;;;;;;;;;10508728;28;20190;-75
2022/07/31 15:14:53;;;;;;;0.57;0.57;;;;;;;;;;10535550;28;20248;-76
2022/07/31 15:19:54;;;;;;;0.50;0.50;;;;;;;;;;10509444;28;20992;-76
2022/07/31 15:24:55;;;;;;;1.02;0.60;;;;;;;;;;10508204;28;21161;-76
2022/07/31 15:29:57;;;;;;;0.70;0.70;;;;;;;;;;10517183;28;20169;-76
2022/07/31 15:34:58;;;;;;;0.90;0.80;;;;;;;;;;10534449;28;20288;-76
2022/07/31 15:39:59;;;;;;;2.70;0.60;;;;;;;;;;10542012;28;20182;-76
2022/07/31 15:45:00;;;;;;;0.65;0.65;;;;;;;;;;10530244;28;20228;-74
2022/07/31 15:50:01;;;;;;;0.73;0.73;;;;;;;;;;10534907;28;20634;-75
2022/07/31 15:55:03;;;;;;;0.40;0.40;;;;;;;;;;10531916;28;20305;-75
2022/07/31 16:00:04;;;;;;;0.57;0.50;;;;;;;;;;10533182;28;20181;-76
2022/07/31 16:05:11;;;;;;;1.25;0.90;;;;;;;;;;10534872;28;20241;-75
2022/07/31 16:10:14;;;;;;;3.47;1.00;;;;;;;;;;10537593;28;20185;-75
2022/07/31 16:15:16;;;;;;;1.05;1.05;;;;;;;;;;10533265;28;20180;-74
2022/07/31 16:20:21;;;;;;;1.05;0.70;;;;;;;;;;10501649;28;20744;-76
2022/07/31 16:25:23;;;;;;;0.90;0.90;;;;;;;;;;10537286;28;20561;-75
2022/07/31 16:30:26;;;;;;;1.58;0.80;;;;;;;;;;10524206;28;20182;-74
2022/07/31 16:35:27;;;;;;;0.70;0.70;;;;;;;;;;10531465;27;20230;-72
2022/07/31 16:40:30;;;;;;;1.10;0.95;;;;;;;;;;10531059;28;20172;-75
2022/07/31 16:45:31;;;;;;;1.23;1.13;;;;;;;;;;10500346;28;20688;-77
2022/07/31 16:50:32;;;;;;;2.05;1.00;;;;;;;;;;10527700;28;20270;-74
2022/07/31 16:55:33;;;;;;;1.73;1.13;;;;;;;;;;10519234;28;20186;-74
2022/07/31 17:00:34;;;;;;;1.13;1.02;;;;;;;;;;10511382;28;20209;-72
2022/07/31 17:05:35;;;;;;;1.67;1.58;;;;;;;;;;10504767;28;20755;-74
2022/07/31 17:10:36;;;;;;;2.03;1.63;;;;;;;;;;10527867;28;20224;-74
2022/07/31 17:15:37;;;;;;;1.38;1.02;;;;;;;;;;10533250;28;20235;-73
2022/07/31 17:20:45;;;;;;;1.13;1.13;;;;;;;;;;10523310;28;20245;-74
2022/07/31 17:25:46;;;;;;;2.45;0.98;;;;;;;;;;10511884;28;20205;-72
2022/07/31 17:30:47;;;;;;;1.20;1.10;;;;;;;;;;10526241;28;20250;-72
2022/07/31 17:35:48;;;;;;;0.93;0.93;;;;;;;;;;10505449;28;21055;-73
2022/07/31 17:40:50;;;;;;;3.83;1.65;;;;;;;;;;10500076;28;20225;-73
2022/07/31 17:45:51;;;;;;;2.08;1.27;;;;;;;;;;10522849;28;20208;-73
2022/07/31 17:50:52;;;;;;;13.65;1.50;;;;;;;;;;10527614;28;20217;-72
2022/07/31 17:55:53;;;;;;;1.35;1.35;;;;;;;;;;10506215;28;20189;-73
2022/07/31 18:00:54;;;;;;;4.35;1.33;;;;;;;;;;10522740;28;20332;-76
2022/07/31 18:05:56;;;;;;;2.70;1.40;;;;;;;;;;10525329;28;20213;-73
2022/07/31 18:10:57;;;;;;;1.85;1.02;;;;;;;;;;10501268;28;20216;-74
2022/07/31 18:15:58;;;;;;;16.08;2.40;;;;;;;;;;10525457;28;20222;-77
2022/07/31 18:21:01;;;;;;;3.53;1.50;;;;;;;;;;10520838;28;20223;-77
2022/07/31 18:26:02;;;;;;;2.35;1.80;;;;;;;;;;10496737;28;20794;-71
2022/07/31 18:31:03;;;;;;;4.53;1.42;;;;;;;;;;10527666;28;20258;-70
2022/07/31 18:36:05;;;;;;;3.85;1.42;;;;;;;;;;10500577;28;20704;-78
2022/07/31 18:41:06;;;;;;;1.50;1.40;;;;;;;;;;10518736;28;20213;-72
2022/07/31 18:46:07;;;;;;;1.58;1.48;;;;;;;;;;10518889;28;20213;-76
2022/07/31 18:51:08;;;;;;;1.42;1.33;;;;;;;;;;10530532;28;20236;-82
2022/07/31 18:56:09;;;;;;;1.83;1.23;;;;;;;;;;10496802;28;20212;-75
2022/07/31 19:01:10;;;;;;;2.28;0.80;;;;;;;;;;10481131;28;20720;-73
2022/07/31 19:06:12;;;;;;;0.60;0.60;;;;;;;;;;10529637;28;20201;-79
2022/07/31 19:11:13;;;;;;;5.97;0.70;;;;;;;;;;10533778;28;20660;-72
2022/07/31 19:16:14;;;;;;;0.60;0.60;;;;;;;;;;10534587;28;20181;-77
2022/07/31 19:21:16;;;;;;;3.30;0.70;;;;;;;;;;10501878;28;20760;-71
2022/07/31 19:26:17;;;;;;;0.50;0.50;;;;;;;;;;10531039;28;20201;-74
2022/07/31 19:31:18;;;;;;;1.05;0.70;;;;;;;;;;10502602;28;20331;-76
2022/07/31 19:36:19;;;;;;;3.65;0.73;;;;;;;;;;10506993;28;20638;-81
2022/07/31 19:41:20;;;;;;;1.50;0.80;;;;;;;;;;10538651;28;20290;-80
2022/07/31 19:46:21;;;;;;;1.95;0.75;;;;;;;;;;10532104;28;20212;-81
2022/07/31 19:51:22;;;;;;;1.00;0.60;;;;;;;;;;10525808;28;20248;-82
2022/07/31 19:56:23;;;;;;;1.00;0.80;;;;;;;;;;10519732;28;20239;-80
2022/07/31 20:01:25;;;;;;;0.80;0.80;;;;;;;;;;10538548;28;20216;-83
2022/07/31 20:06:26;;;;;;;1.92;0.80;;;;;;;;;;10510524;28;20204;-82
2022/07/31 20:11:27;;;;;;;4.03;0.68;;;;;;;;;;10533311;28;20287;-83
2022/07/31 20:16:28;;;;;;;2.63;0.70;;;;;;;;;;10527506;28;20201;-83
2022/07/31 20:21:31;;;;;;;8.98;1.00;;;;;;;;;;10511892;28;20209;-76
2022/07/31 20:26:35;;;;;;;3.40;1.13;;;;;;;;;;10507404;28;20826;-83
2022/07/31 20:31:36;;;;;;;0.90;0.90;;;;;;;;;;10538742;28;20251;-87
2022/07/31 20:36:38;;;;;;;1.20;1.10;;;;;;;;;;10530680;28;21911;-82
2022/07/31 20:41:40;;;;;;;1.20;1.10;;;;;;;;;;10529948;28;20576;-86
2022/07/31 20:46:41;;;;;;;1.33;1.10;;;;;;;;;;10512930;28;20680;-80
2022/07/31 20:51:42;;;;;;;1.40;1.40;;;;;;;;;;10529380;28;20823;-81
2022/07/31 20:56:44;;;;;;;1.38;1.30;;;;;;;;;;10534488;28;20636;-82
2022/07/31 21:01:45;;;;;;;1.05;1.05;;;;;;;;;;10525215;28;20209;-81
2022/07/31 21:06:46;;;;;;;1.30;1.30;;;;;;;;;;10502178;28;20208;-80
2022/07/31 21:11:47;;;;;;;1.52;1.52;;;;;;;;;;10531116;28;20585;-82
2022/07/31 21:16:48;;;;;;;1.30;1.30;;;;;;;;;;10514728;28;20197;-82
2022/07/31 21:21:50;;;;;;;1.90;1.65;;;;;;;;;;10536023;28;20209;-82
2022/07/31 21:26:52;;;;;;;1.52;1.50;;;;;;;;;;10524575;28;20210;-81
2022/07/31 21:31:53;;;;;;;2.30;2.15;;;;;;;;;;10531247;28;20575;-82
2022/07/31 21:36:55;;;;;;;2.38;2.28;;;;;;;;;;10517780;28;20236;-83
2022/07/31 21:41:56;;;;;;;3.65;3.45;;;;;;;;;;10507309;28;21026;-82
2022/07/31 21:47:00;;;;;;;3.40;3.20;;;;;;;;;;10537447;28;20757;-80
2022/07/31 21:52:01;;;;;;;2.33;2.15;;;;;;;;;;10534182;28;20219;-82
2022/07/31 21:57:02;;;;;;;1.92;1.65;;;;;;;;;;10505276;28;20272;-82
2022/07/31 22:02:03;;;;;;;1.20;1.17;;;;;;;;;;10528824;28;20221;-82
2022/07/31 22:12:24;;;;;;;1.67;1.58;;;;;;;;;;10529515;28;20225;-81
2022/07/31 22:17:25;;;;;;;1.85;1.58;;;;;;;;;;10501714;28;20684;-80
2022/07/31 22:22:27;;;;;;;1.67;1.50;;;;;;;;;;10544213;28;20211;-80
2022/07/31 22:32:49;;;;;;;2.22;2.03;;;;;;;;;;10529845;28;20280;-80
2022/07/31 22:37:50;;;;;;;1.83;1.73;;;;;;;;;;10537315;28;20206;-81
2022/07/31 22:42:51;;;;;;;2.13;2.03;;;;;;;;;;10502528;28;20650;-82
2022/07/31 22:47:54;;;;;;;2.70;2.10;;;;;;;;;;10536178;28;20693;-81
2022/07/31 22:52:55;;;;;;;2.55;2.40;;;;;;;;;;10524028;28;20707;-83
2022/07/31 22:57:56;;;;;;;2.00;1.90;;;;;;;;;;10538287;28;20770;-81
2022/07/31 23:02:57;;;;;;;2.30;2.20;;;;;;;;;;10521531;28;20212;-81
2022/07/31 23:07:59;;;;;;;3.05;2.47;;;;;;;;;;10542373;28;20197;-81
2022/07/31 23:13:00;;;;;;;3.42;2.40;;;;;;;;;;10537683;28;20206;-81
2022/07/31 23:18:01;;;;;;;1.92;1.90;;;;;;;;;;10542529;28;20205;-81
2022/07/31 23:23:02;;;;;;;2.33;2.20;;;;;;;;;;10516434;28;20217;-80
2022/07/31 23:28:04;;;;;;;2.60;2.40;;;;;;;;;;10513678;28;20254;-80
2022/07/31 23:33:05;;;;;;;2.65;2.42;;;;;;;;;;10536268;28;20217;-81
2022/07/31 23:38:06;;;;;;;2.53;2.25;;;;;;;;;;10534531;28;20181;-78
2022/07/31 23:43:07;;;;;;;2.90;2.80;;;;;;;;;;10534616;28;20292;-78
2022/07/31 23:48:10;;;;;;;3.92;2.40;;;;;;;;;;10524458;28;20235;-77
2022/07/31 23:53:11;;;;;;;2.92;2.60;;;;;;;;;;10529558;28;20229;-78
2022/07/31 23:58:12;;;;;;;2.58;2.50;;;;;;;;;;10530483;28;20188;-78
